Time;durP1;ratioP1;P1;durP2;ratioP2;P2;SDS_P1;SDS_P2;PMS_P1;PMS_P2;Temp;Humidity;BMP_temperature;BMP_pressure;BME280_temperature;BME280_humidity;BME280_pressure;Samples;Min_cycle;Max_cycle;Signal;HPM_P1;HPM_P2
2023/06/20 00:01:12;;;;;;;9.25;8.50;;;20.30;99.90;;;;;;4999190;28;20038;-56
2023/06/20 00:03:38;;;;;;;9.07;8.38;;;20.30;99.90;;;;;;4995969;28;20034;-57
2023/06/20 00:06:04;;;;;;;9.43;8.82;;;20.30;99.90;;;;;;4999315;28;20113;-57
2023/06/20 00:08:29;;;;;;;10.00;9.30;;;20.20;99.90;;;;;;4998690;28;20030;-58
2023/06/20 00:10:55;;;;;;;10.32;9.63;;;20.20;99.90;;;;;;5000052;28;20034;-56
2023/06/20 00:13:20;;;;;;;9.50;8.80;;;20.10;99.90;;;;;;5002376;28;20532;-57
2023/06/20 00:15:46;;;;;;;9.10;8.48;;;20.10;99.90;;;;;;4998115;28;20053;-57
2023/06/20 00:18:12;;;;;;;8.93;8.32;;;20.00;99.90;;;;;;4998664;28;20476;-57
2023/06/20 00:20:37;;;;;;;9.45;8.75;;;20.00;99.90;;;;;;4997830;28;20034;-58
2023/06/20 00:23:03;;;;;;;9.05;8.25;;;19.90;99.90;;;;;;4998545;28;20031;-58
2023/06/20 00:25:29;;;;;;;9.55;8.82;;;19.90;99.90;;;;;;5000172;28;20505;-57
2023/06/20 00:27:54;;;;;;;10.00;9.10;;;19.90;99.90;;;;;;5000728;28;20037;-57
2023/06/20 00:30:20;;;;;;;10.23;9.43;;;19.90;99.90;;;;;;5002380;28;20062;-56
2023/06/20 00:32:46;;;;;;;9.98;9.18;;;19.90;99.90;;;;;;4996413;28;20038;-56
2023/06/20 00:35:11;;;;;;;9.88;9.18;;;19.90;99.90;;;;;;4998333;28;20994;-56
2023/06/20 00:37:38;;;;;;;9.73;8.93;;;19.90;99.90;;;;;;5002603;28;20809;-55
2023/06/20 00:40:06;;;;;;;10.27;9.48;;;19.80;99.90;;;;;;4997666;28;20026;-55
2023/06/20 00:42:31;;;;;;;9.15;8.45;;;19.80;99.90;;;;;;5000686;28;20391;-56
2023/06/20 00:44:57;;;;;;;9.43;8.73;;;19.60;99.90;;;;;;4998479;28;20039;-56
2023/06/20 00:47:24;;;;;;;9.60;8.90;;;19.60;99.90;;;;;;5000440;28;20110;-56
2023/06/20 00:49:51;;;;;;;9.48;8.77;;;19.50;99.90;;;;;;4998400;28;20110;-56
2023/06/20 00:52:21;;;;;;;10.93;10.10;;;19.40;99.90;;;;;;4998343;28;20027;-56
2023/06/20 00:54:48;;;;;;;10.53;9.70;;;19.30;99.90;;;;;;4997040;28;20046;-56
2023/06/20 00:57:15;;;;;;;10.30;9.40;;;19.30;99.90;;;;;;4997544;28;20259;-56
2023/06/20 00:59:45;;;;;;;10.45;9.65;;;19.30;99.90;;;;;;4999059;28;20129;-54
2023/06/20 01:02:12;;;;;;;10.85;10.02;;;19.20;99.90;;;;;;4997609;28;20037;-57
2023/06/20 01:04:39;;;;;;;10.30;9.60;;;19.20;99.90;;;;;;5003815;28;20390;-57
2023/06/20 01:07:33;;;;;;;12.55;9.65;;;19.10;99.90;;;;;;4997302;28;20450;-58
2023/06/20 01:10:14;;;;;;;9.40;8.55;;;19.00;99.90;;;;;;4996705;28;20030;-57
2023/06/20 01:12:59;;;;;;;9.38;8.77;;;18.90;99.90;;;;;;4998567;28;20041;-55
2023/06/20 01:15:50;;;;;;;9.65;8.95;;;18.80;99.90;;;;;;4998281;28;20037;-56
2023/06/20 01:18:57;;;;;;;10.77;9.98;;;18.80;99.90;;;;;;4998894;28;20087;-56
2023/06/20 01:21:32;;;;;;;10.73;9.80;;;18.70;99.90;;;;;;4996834;28;20142;-56
2023/06/20 01:24:07;;;;;;;9.02;8.43;;;18.70;99.90;;;;;;4996624;28;20034;-57
2023/06/20 01:26:47;;;;;;;11.98;10.90;;;18.70;99.90;;;;;;4997521;28;20025;-57
2023/06/20 01:29:36;;;;;;;11.18;10.38;;;18.80;99.90;;;;;;4997738;28;20047;-56
2023/06/20 01:32:06;;;;;;;11.18;10.38;;;18.80;99.90;;;;;;4997843;28;20057;-57
2023/06/20 01:34:38;;;;;;;11.57;10.70;;;18.90;99.90;;;;;;4996942;28;20022;-57
2023/06/20 01:37:06;;;;;;;10.70;9.93;;;18.90;99.90;;;;;;4998143;28;20065;-56
2023/06/20 01:39:39;;;;;;;11.45;10.65;;;18.90;99.90;;;;;;4999595;28;20026;-57
2023/06/20 01:42:05;;;;;;;12.20;11.20;;;19.00;99.90;;;;;;4997899;28;20034;-57
2023/06/20 01:44:34;;;;;;;11.98;10.80;;;19.00;99.90;;;;;;4999216;28;20048;-57
2023/06/20 01:47:02;;;;;;;10.80;9.88;;;18.90;99.90;;;;;;4996075;28;20526;-57
2023/06/20 01:49:29;;;;;;;11.68;10.63;;;18.90;99.90;;;;;;4996537;28;20040;-58
2023/06/20 01:51:56;;;;;;;12.52;11.25;;;18.90;99.90;;;;;;4998779;28;20034;-55
2023/06/20 01:54:25;;;;;;;11.95;10.93;;;18.80;99.90;;;;;;4997455;28;20035;-56
2023/06/20 01:56:52;;;;;;;13.52;12.52;;;18.80;99.90;;;;;;4994944;28;20759;-55
2023/06/20 01:59:19;;;;;;;12.95;12.05;;;18.80;99.90;;;;;;4996675;28;20054;-57
2023/06/20 02:01:46;;;;;;;13.55;12.48;;;18.70;99.90;;;;;;4998762;28;20022;-56
2023/06/20 02:04:13;;;;;;;11.88;10.95;;;18.60;99.90;;;;;;5001207;28;20438;-57
2023/06/20 02:06:39;;;;;;;11.00;10.20;;;18.50;99.90;;;;;;4995852;28;20084;-57
2023/06/20 02:09:05;;;;;;;11.32;10.43;;;18.50;99.90;;;;;;4996796;28;20495;-57
2023/06/20 02:11:32;;;;;;;12.30;11.40;;;18.40;99.90;;;;;;4996952;28;20026;-57
2023/06/20 02:13:59;;;;;;;10.82;10.02;;;18.40;99.90;;;;;;4998395;28;20030;-57
2023/06/20 02:16:26;;;;;;;11.68;10.77;;;18.30;99.90;;;;;;4996939;28;20018;-58
2023/06/20 02:18:51;;;;;;;12.40;11.55;;;18.20;99.90;;;;;;4996723;28;20181;-56
2023/06/20 02:21:23;;;;;;;13.88;12.82;;;18.20;99.90;;;;;;4995293;28;20602;-56
2023/06/20 02:23:51;;;;;;;12.95;11.95;;;18.20;99.90;;;;;;4999390;28;20050;-55
2023/06/20 02:26:19;;;;;;;12.30;11.25;;;18.20;99.90;;;;;;4997980;28;20034;-56
2023/06/20 02:28:49;;;;;;;12.18;11.23;;;18.20;99.90;;;;;;4996805;28;20026;-56
2023/06/20 02:31:22;;;;;;;11.75;10.90;;;18.20;99.90;;;;;;4997268;28;20364;-58
2023/06/20 02:33:52;;;;;;;12.25;11.25;;;18.20;99.90;;;;;;4998456;28;20030;-56
2023/06/20 02:36:20;;;;;;;12.80;11.90;;;18.20;99.90;;;;;;5000675;28;20057;-58
2023/06/20 02:38:46;;;;;;;13.65;12.02;;;18.30;99.90;;;;;;4999540;28;20085;-58
2023/06/20 02:41:12;;;;;;;13.93;12.85;;;18.20;99.90;;;;;;5000147;28;20033;-60
2023/06/20 02:43:37;;;;;;;13.25;12.35;;;18.20;99.90;;;;;;5001675;28;20042;-59
2023/06/20 02:46:13;;;;;;;12.88;11.88;;;18.20;99.90;;;;;;4998465;28;20113;-60
2023/06/20 02:48:57;;;;;;;13.50;12.50;;;18.20;99.90;;;;;;5001147;28;20054;-59
2023/06/20 02:51:30;;;;;;;13.55;12.55;;;18.20;99.90;;;;;;4998954;28;20034;-59
2023/06/20 02:54:04;;;;;;;12.73;11.82;;;18.20;99.90;;;;;;4998565;28;20035;-59
2023/06/20 02:56:33;;;;;;;12.63;11.68;;;18.20;99.90;;;;;;5002871;28;20026;-59
2023/06/20 02:59:01;;;;;;;13.35;12.32;;;18.20;99.90;;;;;;4997534;28;20495;-57
2023/06/20 03:01:32;;;;;;;13.18;12.07;;;18.10;99.90;;;;;;5002720;28;20034;-57
2023/06/20 03:04:03;;;;;;;11.95;11.10;;;18.10;99.90;;;;;;4986787;28;20487;-55
2023/06/20 03:06:29;;;;;;;13.00;11.77;;;18.10;99.90;;;;;;4995919;28;20806;-56
2023/06/20 03:08:58;;;;;;;13.50;12.18;;;18.00;99.90;;;;;;5002136;28;20052;-56
2023/06/20 03:11:24;;;;;;;12.80;11.68;;;18.00;99.90;;;;;;4999688;28;20089;-55
2023/06/20 03:13:50;;;;;;;12.15;11.23;;;18.00;99.90;;;;;;5001642;28;20026;-56
2023/06/20 03:16:16;;;;;;;10.85;9.85;;;18.00;99.90;;;;;;5000710;28;20041;-56
2023/06/20 03:18:41;;;;;;;11.68;10.80;;;18.00;99.90;;;;;;5001410;28;20056;-57
2023/06/20 03:21:07;;;;;;;11.70;10.90;;;18.00;99.90;;;;;;5001659;28;20034;-55
2023/06/20 03:23:33;;;;;;;11.70;10.90;;;18.00;99.90;;;;;;5001018;28;20030;-57
2023/06/20 03:25:59;;;;;;;11.38;10.35;;;18.00;99.90;;;;;;4999896;28;20375;-56
2023/06/20 03:28:25;;;;;;;12.35;11.43;;;18.10;99.90;;;;;;4999899;28;20030;-57
2023/06/20 03:30:51;;;;;;;13.25;11.90;;;18.10;99.90;;;;;;4997574;28;20029;-56
2023/06/20 03:33:17;;;;;;;12.38;11.27;;;18.10;99.90;;;;;;4999039;28;20030;-56
2023/06/20 03:35:43;;;;;;;11.85;11.05;;;18.10;99.90;;;;;;4999041;28;20486;-57
2023/06/20 03:38:08;;;;;;;11.68;10.45;;;18.10;99.90;;;;;;4998935;28;20034;-56
2023/06/20 03:40:34;;;;;;;12.93;12.02;;;18.20;99.90;;;;;;5000623;28;20119;-55
2023/06/20 03:43:00;;;;;;;12.05;11.15;;;18.30;99.90;;;;;;4998549;28;20418;-58
2023/06/20 03:45:25;;;;;;;12.57;11.57;;;18.30;99.90;;;;;;4997560;28;20510;-57
2023/06/20 03:47:51;;;;;;;12.25;11.35;;;18.30;99.90;;;;;;5002443;28;20030;-57
2023/06/20 03:50:17;;;;;;;13.57;12.45;;;18.40;99.90;;;;;;4999151;28;21152;-57
2023/06/20 03:52:42;;;;;;;12.52;11.63;;;18.40;99.90;;;;;;4998812;28;20022;-57
2023/06/20 03:55:08;;;;;;;12.07;11.10;;;18.40;99.90;;;;;;4998321;28;20045;-56
2023/06/20 03:57:34;;;;;;;12.35;11.48;;;18.30;99.90;;;;;;4997275;28;20034;-56
2023/06/20 03:59:59;;;;;;;14.68;13.15;;;18.30;99.90;;;;;;5001253;28;20057;-56
2023/06/20 04:02:25;;;;;;;14.00;12.82;;;18.20;99.90;;;;;;4999977;28;20053;-57
2023/06/20 04:04:51;;;;;;;13.20;12.27;;;18.10;99.90;;;;;;5000085;28;20032;-56
2023/06/20 04:07:18;;;;;;;14.75;13.35;;;18.10;99.90;;;;;;4999207;28;20057;-56
2023/06/20 04:09:45;;;;;;;13.57;12.68;;;18.10;99.90;;;;;;4997743;28;20026;-56
2023/06/20 04:12:11;;;;;;;13.43;12.32;;;18.10;99.90;;;;;;4999811;28;20037;-56
2023/06/20 04:14:36;;;;;;;14.85;13.48;;;18.10;99.90;;;;;;5001045;28;20387;-57
2023/06/20 04:17:02;;;;;;;13.25;12.20;;;18.10;99.90;;;;;;4994434;28;20033;-55
2023/06/20 04:19:28;;;;;;;12.75;11.85;;;18.20;99.90;;;;;;5000360;28;20030;-58
2023/06/20 04:21:54;;;;;;;14.32;13.13;;;18.20;99.90;;;;;;5006995;28;20049;-56
2023/06/20 04:24:19;;;;;;;14.00;12.95;;;18.30;99.90;;;;;;5000471;28;20433;-58
2023/06/20 04:26:45;;;;;;;13.40;12.05;;;18.30;99.90;;;;;;4998890;28;20027;-57
2023/06/20 04:29:10;;;;;;;14.15;12.90;;;18.40;99.90;;;;;;5001668;28;20022;-57
2023/06/20 04:31:36;;;;;;;14.35;13.10;;;18.30;99.90;;;;;;4997465;28;20018;-57
2023/06/20 04:34:02;;;;;;;14.55;13.13;;;18.40;99.90;;;;;;4998346;28;20501;-56
2023/06/20 04:36:28;;;;;;;15.35;13.98;;;18.40;99.90;;;;;;4995350;28;20029;-57
2023/06/20 04:38:54;;;;;;;19.35;14.85;;;18.40;99.90;;;;;;4996834;28;20044;-57
2023/06/20 04:41:20;;;;;;;16.73;15.48;;;18.40;99.90;;;;;;4999424;28;20109;-57
2023/06/20 04:43:45;;;;;;;16.48;15.18;;;18.40;99.90;;;;;;4995393;28;20487;-57
2023/06/20 04:46:12;;;;;;;16.77;15.43;;;18.40;99.90;;;;;;4999194;28;20095;-57
2023/06/20 04:48:38;;;;;;;17.05;15.75;;;18.40;99.90;;;;;;4999030;28;20036;-56
2023/06/20 04:51:07;;;;;;;17.88;16.02;;;18.30;99.90;;;;;;4995979;28;20815;-55
2023/06/20 04:53:34;;;;;;;18.10;16.60;;;18.30;99.90;;;;;;4998258;28;20022;-57
2023/06/20 04:55:59;;;;;;;19.73;18.23;;;18.30;99.90;;;;;;4999851;28;20022;-56
2023/06/20 04:58:28;;;;;;;19.58;17.75;;;18.40;99.90;;;;;;4998024;28;20467;-57
2023/06/20 05:00:58;;;;;;;18.83;17.30;;;18.40;99.90;;;;;;4999788;28;20038;-57
2023/06/20 05:03:24;;;;;;;19.30;17.80;;;18.50;99.90;;;;;;5001367;28;20030;-57
2023/06/20 05:05:50;;;;;;;18.70;17.30;;;18.50;99.90;;;;;;4996053;28;20023;-55
2023/06/20 05:08:16;;;;;;;19.83;18.13;;;18.50;99.90;;;;;;4995925;28;20381;-56
2023/06/20 05:10:42;;;;;;;19.80;18.15;;;18.50;99.90;;;;;;4998574;28;20028;-56
2023/06/20 05:13:07;;;;;;;19.35;17.83;;;18.50;99.90;;;;;;4998401;28;20514;-55
2023/06/20 05:15:33;;;;;;;21.30;19.38;;;18.50;99.90;;;;;;5000605;28;20376;-55
2023/06/20 05:17:59;;;;;;;21.63;18.63;;;18.50;99.90;;;;;;4998592;28;20037;-57
2023/06/20 05:20:24;;;;;;;19.75;18.00;;;18.50;99.90;;;;;;4996303;28;20061;-56
2023/06/20 05:22:50;;;;;;;23.38;18.05;;;18.50;99.90;;;;;;4999325;28;20393;-56
2023/06/20 05:25:15;;;;;;;19.63;18.02;;;18.50;99.90;;;;;;4998027;28;20463;-57
2023/06/20 05:27:42;;;;;;;18.10;16.40;;;18.50;99.90;;;;;;4998047;28;20112;-56
2023/06/20 05:30:08;;;;;;;20.15;18.35;;;18.50;99.90;;;;;;4997880;28;20461;-56
2023/06/20 05:32:34;;;;;;;20.65;19.05;;;18.40;99.90;;;;;;4997603;28;20037;-55
2023/06/20 05:35:00;;;;;;;20.17;18.23;;;18.30;99.90;;;;;;4995510;28;20400;-56
2023/06/20 05:37:28;;;;;;;20.58;18.88;;;18.30;99.90;;;;;;4998323;28;20700;-57
2023/06/20 05:39:53;;;;;;;20.58;18.67;;;18.30;99.90;;;;;;4994663;28;20039;-55
2023/06/20 05:42:19;;;;;;;20.50;18.52;;;18.20;99.90;;;;;;4998097;28;20081;-55
2023/06/20 05:44:45;;;;;;;21.42;19.27;;;18.20;99.90;;;;;;4997379;28;20026;-55
2023/06/20 05:47:17;;;;;;;21.40;19.75;;;18.20;99.90;;;;;;4996695;28;20363;-56
2023/06/20 05:49:46;;;;;;;19.80;18.35;;;18.10;99.90;;;;;;5001306;28;20057;-55
2023/06/20 05:52:12;;;;;;;20.20;18.52;;;18.20;99.90;;;;;;5000275;28;20109;-56
2023/06/20 05:54:38;;;;;;;23.10;19.45;;;18.30;99.90;;;;;;4995918;28;20578;-56
2023/06/20 05:57:07;;;;;;;20.80;18.95;;;18.40;99.90;;;;;;4998941;28;20049;-57
2023/06/20 05:59:33;;;;;;;19.23;17.83;;;18.50;99.90;;;;;;4999433;28;20026;-57
2023/06/20 06:01:58;;;;;;;18.95;17.55;;;18.50;99.90;;;;;;5000704;28;20032;-56
2023/06/20 06:04:25;;;;;;;18.98;17.60;;;18.70;99.90;;;;;;5001725;28;20514;-57
2023/06/20 06:06:51;;;;;;;17.52;16.13;;;18.80;99.90;;;;;;5000505;28;20399;-57
2023/06/20 06:09:17;;;;;;;18.10;16.52;;;18.90;99.90;;;;;;5002466;28;20041;-56
2023/06/20 06:11:43;;;;;;;18.88;17.15;;;19.00;99.90;;;;;;4998836;28;20038;-56
2023/06/20 06:14:08;;;;;;;18.67;17.00;;;19.20;99.90;;;;;;4999364;28;20022;-57
2023/06/20 06:16:34;;;;;;;18.63;17.02;;;19.20;99.90;;;;;;5000327;28;20060;-55
2023/06/20 06:19:00;;;;;;;17.85;16.40;;;19.20;99.90;;;;;;5000466;28;20034;-56
2023/06/20 06:21:26;;;;;;;19.33;17.83;;;19.20;99.90;;;;;;4999585;28;20038;-56
2023/06/20 06:23:52;;;;;;;18.70;17.23;;;19.20;99.90;;;;;;4998962;28;20101;-56
2023/06/20 06:26:18;;;;;;;18.52;16.98;;;19.20;99.90;;;;;;4996711;28;20491;-56
2023/06/20 06:28:43;;;;;;;18.00;16.60;;;19.20;99.90;;;;;;4997451;28;20479;-56
2023/06/20 06:31:13;;;;;;;19.48;18.08;;;19.30;99.90;;;;;;4998606;28;20041;-56
2023/06/20 06:33:40;;;;;;;18.27;16.88;;;19.40;99.90;;;;;;4996497;28;20040;-57
2023/06/20 06:36:06;;;;;;;19.55;17.80;;;19.60;99.90;;;;;;4994589;28;20594;-57
2023/06/20 06:38:32;;;;;;;19.45;18.15;;;19.70;99.90;;;;;;4995480;28;20035;-55
2023/06/20 06:40:59;;;;;;;17.40;16.00;;;19.70;99.90;;;;;;4997970;28;20398;-55
2023/06/20 06:43:25;;;;;;;18.23;16.50;;;19.90;99.90;;;;;;4999883;28;20054;-57
2023/06/20 06:45:51;;;;;;;15.38;14.07;;;20.20;99.90;;;;;;4998476;28;20495;-57
2023/06/20 06:48:16;;;;;;;16.33;15.13;;;20.30;99.90;;;;;;4995296;28;20117;-56
2023/06/20 06:50:43;;;;;;;15.95;14.77;;;20.50;99.90;;;;;;4995372;28;20129;-55
2023/06/20 06:53:12;;;;;;;15.38;14.20;;;20.60;99.90;;;;;;4996837;28;20030;-56
2023/06/20 06:55:38;;;;;;;15.57;14.00;;;20.60;99.90;;;;;;5000170;28;20124;-57
2023/06/20 06:58:03;;;;;;;15.80;14.50;;;20.60;99.90;;;;;;4999218;28;20093;-57
2023/06/20 07:00:29;;;;;;;15.57;14.38;;;20.70;99.90;;;;;;5000917;28;20038;-56
2023/06/20 07:02:55;;;;;;;15.68;14.57;;;20.80;99.90;;;;;;5001380;28;20042;-56
2023/06/20 07:05:21;;;;;;;14.52;13.43;;;20.90;99.90;;;;;;4999997;28;20478;-55
2023/06/20 07:07:46;;;;;;;14.10;13.10;;;21.00;99.90;;;;;;4998753;28;20022;-56
2023/06/20 07:10:12;;;;;;;14.65;13.52;;;21.10;99.90;;;;;;5000534;28;20432;-56
2023/06/20 07:12:38;;;;;;;14.15;13.18;;;21.30;99.90;;;;;;4997922;28;20033;-56
2023/06/20 07:15:04;;;;;;;13.80;12.73;;;21.50;99.90;;;;;;4996628;28;20034;-56
2023/06/20 07:17:30;;;;;;;14.27;13.23;;;21.60;99.90;;;;;;4999201;28;20110;-56
2023/06/20 07:19:55;;;;;;;14.38;13.07;;;21.60;99.90;;;;;;5001137;28;20163;-56
2023/06/20 07:22:21;;;;;;;13.88;12.88;;;21.60;99.90;;;;;;5001813;28;20109;-58
2023/06/20 07:24:48;;;;;;;12.63;11.48;;;21.60;99.90;;;;;;5003681;28;20041;-57
2023/06/20 07:27:14;;;;;;;12.82;11.82;;;21.60;99.90;;;;;;5003737;28;20030;-57
2023/06/20 07:29:41;;;;;;;13.68;12.68;;;21.70;99.90;;;;;;5000395;28;20118;-56
2023/06/20 07:32:07;;;;;;;13.45;12.35;;;21.80;99.90;;;;;;4998977;28;20034;-57
2023/06/20 07:34:32;;;;;;;12.68;11.68;;;21.80;99.90;;;;;;5003405;28;20038;-57
2023/06/20 07:36:58;;;;;;;11.77;10.98;;;21.60;99.90;;;;;;5000701;28;20038;-57
2023/06/20 07:39:24;;;;;;;12.73;11.63;;;21.60;99.90;;;;;;4997307;28;20164;-56
2023/06/20 07:41:49;;;;;;;12.52;11.45;;;21.50;99.90;;;;;;4999138;28;20034;-56
2023/06/20 07:44:15;;;;;;;13.27;12.13;;;21.40;99.90;;;;;;4999929;28;21741;-57
2023/06/20 07:46:41;;;;;;;12.02;11.13;;;21.30;99.90;;;;;;4998322;28;20100;-57
2023/06/20 07:49:06;;;;;;;11.45;10.65;;;21.30;99.90;;;;;;4996139;28;20030;-57
2023/06/20 07:51:36;;;;;;;13.38;12.38;;;21.30;99.90;;;;;;4999801;28;20038;-56
2023/06/20 07:54:05;;;;;;;12.32;11.52;;;21.30;99.90;;;;;;5001170;28;20031;-55
2023/06/20 07:56:30;;;;;;;12.27;11.30;;;21.40;99.90;;;;;;4999658;28;20030;-56
2023/06/20 07:58:56;;;;;;;12.85;11.85;;;21.50;99.90;;;;;;4998215;28;20034;-56
2023/06/20 08:01:22;;;;;;;12.35;11.55;;;21.70;99.90;;;;;;4998023;28;20037;-56
2023/06/20 08:03:48;;;;;;;11.05;10.32;;;21.90;99.90;;;;;;5001291;28;20126;-57
2023/06/20 08:06:14;;;;;;;12.70;11.70;;;22.00;99.90;;;;;;4999216;28;20486;-58
2023/06/20 08:08:41;;;;;;;11.38;10.55;;;22.20;99.90;;;;;;4996826;28;20031;-57
2023/06/20 08:11:07;;;;;;;11.98;11.18;;;22.30;99.90;;;;;;4994734;28;20032;-57
2023/06/20 08:13:32;;;;;;;13.50;12.38;;;22.40;99.90;;;;;;4998115;28;20367;-56
2023/06/20 08:15:58;;;;;;;12.40;11.45;;;22.60;99.90;;;;;;4998604;28;20042;-57
2023/06/20 08:18:24;;;;;;;11.35;10.55;;;22.70;99.90;;;;;;4997139;28;20534;-57
2023/06/20 08:20:50;;;;;;;12.43;11.52;;;22.90;99.90;;;;;;5002358;28;20094;-56
2023/06/20 08:23:26;;;;;;;11.15;10.45;;;23.00;99.90;;;;;;5001143;28;20042;-57
2023/06/20 08:25:55;;;;;;;11.57;10.77;;;23.40;99.90;;;;;;5000220;28;20148;-58
2023/06/20 08:28:24;;;;;;;10.43;9.43;;;23.50;99.90;;;;;;5000477;28;20069;-58
2023/06/20 08:30:50;;;;;;;11.05;10.25;;;23.80;99.90;;;;;;4994941;28;20784;-58
2023/06/20 08:33:17;;;;;;;10.90;10.10;;;24.10;99.90;;;;;;4999840;28;20491;-58
2023/06/20 08:35:43;;;;;;;10.18;9.48;;;24.40;99.90;;;;;;4997833;28;20573;-57
2023/06/20 08:38:09;;;;;;;10.63;9.90;;;24.60;99.90;;;;;;4998348;28;20042;-56
2023/06/20 08:40:35;;;;;;;9.05;8.43;;;24.80;99.90;;;;;;5001940;28;20029;-57
2023/06/20 08:43:01;;;;;;;9.38;8.77;;;24.80;99.90;;;;;;4997520;28;20035;-58
2023/06/20 08:45:30;;;;;;;9.93;9.13;;;24.90;99.90;;;;;;4997992;28;20462;-57
2023/06/20 08:47:58;;;;;;;10.00;9.30;;;25.10;99.90;;;;;;5002088;28;20084;-57
2023/06/20 08:50:25;;;;;;;8.50;7.90;;;25.20;99.90;;;;;;4994299;28;20748;-57
2023/06/20 08:52:54;;;;;;;8.68;8.18;;;25.10;99.90;;;;;;4997290;28;20037;-57
2023/06/20 08:55:20;;;;;;;8.68;8.07;;;25.10;99.90;;;;;;4998485;28;20056;-56
2023/06/20 08:57:46;;;;;;;10.00;8.32;;;25.10;99.90;;;;;;4997654;28;20133;-57
2023/06/20 09:00:22;;;;;;;9.70;8.88;;;25.20;99.90;;;;;;4999281;28;20117;-58
2023/06/20 09:02:49;;;;;;;8.20;7.60;;;25.20;99.90;;;;;;4999540;28;20581;-58
2023/06/20 09:05:15;;;;;;;8.40;7.85;;;25.20;99.90;;;;;;4996782;28;20061;-57
2023/06/20 09:07:41;;;;;;;8.48;7.88;;;25.20;99.90;;;;;;4998051;28;20359;-58
2023/06/20 09:10:09;;;;;;;7.90;7.30;;;25.20;99.90;;;;;;4999902;28;20038;-56
2023/06/20 09:12:49;;;;;;;7.53;7.03;;;25.20;99.90;;;;;;4997601;28;20084;-58
2023/06/20 09:15:17;;;;;;;7.63;7.10;;;25.40;99.90;;;;;;4998314;28;20033;-58
2023/06/20 09:17:44;;;;;;;6.53;6.10;;;25.40;99.90;;;;;;4998724;28;20580;-58
2023/06/20 09:20:16;;;;;;;6.72;6.32;;;25.60;99.90;;;;;;4998062;28;20034;-58
2023/06/20 09:22:42;;;;;;;6.20;5.72;;;25.70;99.90;;;;;;4997269;28;20054;-57
2023/06/20 09:25:09;;;;;;;6.20;5.80;;;25.80;99.90;;;;;;4993818;28;20030;-54
2023/06/20 09:27:41;;;;;;;6.53;6.05;;;25.80;99.90;;;;;;4995033;28;20121;-58
2023/06/20 09:30:08;;;;;;;7.97;7.32;;;26.00;99.90;;;;;;4997898;28;20038;-56
2023/06/20 09:32:40;;;;;;;5.88;5.20;;;26.10;99.90;;;;;;4998737;28;20100;-58
2023/06/20 09:35:07;;;;;;;5.85;5.45;;;26.30;99.90;;;;;;4998019;28;20030;-57
2023/06/20 09:37:49;;;;;;;6.10;5.70;;;26.50;99.90;;;;;;4997220;28;20029;-57
2023/06/20 09:40:17;;;;;;;5.20;4.13;;;26.50;99.90;;;;;;4998389;28;20022;-57
2023/06/20 09:42:45;;;;;;;4.22;3.92;;;26.70;99.90;;;;;;4996218;28;20101;-57
2023/06/20 09:45:16;;;;;;;4.45;4.15;;;26.90;99.90;;;;;;4998782;28;20042;-57
2023/06/20 09:47:43;;;;;;;3.28;3.08;;;27.10;99.90;;;;;;4996457;28;20040;-58
2023/06/20 09:50:16;;;;;;;4.10;3.70;;;27.30;99.90;;;;;;4998499;28;20046;-58
2023/06/20 09:53:07;;;;;;;3.60;2.75;;;27.40;99.90;;;;;;4997099;28;20046;-58
2023/06/20 09:55:35;;;;;;;4.28;2.97;;;27.50;99.90;;;;;;4989926;28;20056;-57
2023/06/20 09:58:02;;;;;;;3.42;3.13;;;27.60;99.90;;;;;;4996944;28;20030;-58
2023/06/20 10:00:30;;;;;;;3.30;3.03;;;27.60;99.90;;;;;;4999091;28;20038;-59
2023/06/20 10:02:59;;;;;;;3.63;3.33;;;27.70;99.90;;;;;;4997855;28;20023;-57
2023/06/20 10:05:27;;;;;;;3.08;2.88;;;27.80;99.90;;;;;;4996132;28;20430;-59
2023/06/20 10:07:57;;;;;;;3.08;2.78;;;28.00;99.90;;;;;;4997183;28;20495;-57
2023/06/20 10:10:23;;;;;;;2.85;2.45;;;28.20;99.90;;;;;;4999092;28;20146;-59
2023/06/20 10:12:49;;;;;;;3.25;2.95;;;28.40;99.90;;;;;;4995859;28;20042;-58
2023/06/20 10:15:15;;;;;;;2.90;2.58;;;28.50;96.00;;;;;;4998626;28;20077;-57
2023/06/20 10:17:46;;;;;;;3.28;2.97;;;28.50;87.30;;;;;;4995010;28;20037;-57
2023/06/20 10:20:27;;;;;;;3.10;2.80;;;28.40;90.30;;;;;;4996203;28;21097;-58
2023/06/20 10:22:58;;;;;;;3.45;3.20;;;28.30;92.00;;;;;;4998414;28;20097;-58
2023/06/20 10:25:26;;;;;;;3.83;3.60;;;28.20;96.70;;;;;;4999924;28;20030;-57
2023/06/20 10:28:05;;;;;;;3.80;3.50;;;28.20;99.90;;;;;;4994355;28;20023;-59
2023/06/20 10:30:49;;;;;;;3.28;2.97;;;28.30;99.90;;;;;;4997830;28;20045;-57
2023/06/20 10:33:17;;;;;;;4.15;2.88;;;28.40;99.90;;;;;;4995715;28;20407;-58
2023/06/20 10:36:11;;;;;;;3.15;2.85;;;28.40;86.60;;;;;;4994829;28;20085;-57
2023/06/20 10:38:50;;;;;;;4.60;3.47;;;28.70;99.90;;;;;;4997426;28;20499;-58
2023/06/20 10:41:24;;;;;;;5.70;2.70;;;28.90;99.90;;;;;;4992239;28;20070;-58
2023/06/20 10:43:55;;;;;;;3.53;2.50;;;29.00;87.10;;;;;;4998062;28;20030;-58
2023/06/20 10:46:50;;;;;;;2.88;2.58;;;29.10;76.30;;;;;;4995696;28;20051;-58
2023/06/20 10:49:15;;;;;;;5.28;2.78;;;29.10;87.00;;;;;;4997526;28;20032;-56
2023/06/20 10:51:49;;;;;;;4.82;2.67;;;29.00;82.90;;;;;;4997251;28;20023;-58
2023/06/20 10:54:18;;;;;;;3.67;2.50;;;28.70;72.80;;;;;;4999986;28;20026;-57
2023/06/20 10:56:43;;;;;;;3.78;2.28;;;28.60;74.60;;;;;;4999641;28;20018;-58
2023/06/20 10:59:17;;;;;;;5.40;3.33;;;28.60;75.60;;;;;;4998015;28;20034;-58
2023/06/20 11:01:43;;;;;;;2.90;2.60;;;28.80;83.60;;;;;;4997718;28;20539;-57
2023/06/20 11:04:13;;;;;;;4.78;3.10;;;29.00;84.40;;;;;;4997701;28;20046;-57
2023/06/20 11:06:39;;;;;;;3.37;2.83;;;29.10;77.80;;;;;;5001979;28;20034;-57
2023/06/20 11:09:05;;;;;;;3.58;3.00;;;29.10;70.20;;;;;;4999879;28;20045;-57
2023/06/20 11:11:36;;;;;;;3.55;2.80;;;29.20;83.10;;;;;;5001088;28;20026;-59
2023/06/20 11:14:13;;;;;;;2.90;2.47;;;29.40;72.80;;;;;;5001650;28;20653;-58
2023/06/20 11:16:39;;;;;;;6.10;2.67;;;29.40;70.50;;;;;;4999307;28;20026;-57
2023/06/20 11:19:05;;;;;;;2.67;2.42;;;29.50;74.60;;;;;;5001210;28;20057;-57
2023/06/20 11:21:31;;;;;;;7.13;2.65;;;29.60;71.20;;;;;;4999600;28;20061;-57
2023/06/20 11:24:03;;;;;;;3.05;2.47;;;29.70;72.50;;;;;;4998703;28;20479;-58
2023/06/20 11:26:33;;;;;;;4.60;2.60;;;29.70;70.80;;;;;;4999056;28;20033;-57
2023/06/20 11:28:59;;;;;;;2.85;2.65;;;29.70;65.80;;;;;;5001117;28;20034;-57
2023/06/20 11:31:25;;;;;;;2.97;2.67;;;29.50;63.70;;;;;;5004389;28;20374;-57
2023/06/20 11:34:07;;;;;;;3.75;2.90;;;29.50;65.30;;;;;;4999300;28;20495;-58
2023/06/20 11:36:33;;;;;;;3.05;2.80;;;29.50;65.50;;;;;;5001759;28;20026;-56
2023/06/20 11:39:11;;;;;;;4.95;3.10;;;29.60;63.40;;;;;;4999069;28;20446;-58
2023/06/20 11:41:37;;;;;;;3.38;3.08;;;29.70;62.80;;;;;;4999093;28;20107;-57
2023/06/20 11:44:06;;;;;;;3.88;3.10;;;29.80;62.30;;;;;;5000004;28;20026;-58
2023/06/20 11:46:42;;;;;;;3.07;2.73;;;29.90;68.60;;;;;;5001140;28;20025;-58
2023/06/20 11:49:08;;;;;;;4.53;2.78;;;30.00;67.00;;;;;;4999461;28;20061;-57
2023/06/20 11:51:36;;;;;;;3.47;3.17;;;30.10;66.10;;;;;;4998027;28;20030;-57
2023/06/20 11:54:12;;;;;;;3.85;3.20;;;30.30;65.50;;;;;;5000806;28;20376;-58
2023/06/20 11:56:38;;;;;;;3.42;3.13;;;30.40;62.00;;;;;;4999051;28;20031;-58
2023/06/20 11:59:04;;;;;;;3.33;3.03;;;30.60;61.30;;;;;;4999890;28;20038;-58
2023/06/20 12:01:32;;;;;;;4.60;3.78;;;30.70;60.40;;;;;;5001567;28;20391;-59
2023/06/20 12:04:10;;;;;;;7.68;3.00;;;30.80;60.50;;;;;;4997359;28;20538;-57
2023/06/20 12:06:43;;;;;;;3.35;3.00;;;30.90;60.30;;;;;;4998347;28;20454;-57
2023/06/20 12:09:12;;;;;;;4.32;3.22;;;31.10;58.10;;;;;;5007506;28;20041;-57
2023/06/20 12:11:52;;;;;;;3.20;2.90;;;31.10;58.00;;;;;;4997992;28;20026;-58
2023/06/20 12:14:19;;;;;;;3.20;2.80;;;31.00;57.00;;;;;;4999511;28;20037;-57
2023/06/20 12:16:45;;;;;;;3.10;2.80;;;31.00;57.30;;;;;;4999618;28;20049;-58
2023/06/20 12:19:11;;;;;;;4.47;3.20;;;31.00;59.10;;;;;;4998486;28;20039;-57
2023/06/20 12:21:40;;;;;;;3.67;3.13;;;31.10;56.90;;;;;;5000328;28;20092;-58
2023/06/20 12:24:10;;;;;;;4.05;3.70;;;31.20;59.00;;;;;;4999165;28;20041;-57
2023/06/20 12:26:36;;;;;;;3.63;3.28;;;31.30;57.00;;;;;;4995521;28;20032;-58
2023/06/20 12:29:02;;;;;;;3.25;2.95;;;31.30;56.30;;;;;;4998771;28;20029;-58
2023/06/20 12:31:27;;;;;;;3.30;3.00;;;31.40;57.30;;;;;;4999258;28;20756;-57
2023/06/20 12:33:53;;;;;;;3.60;3.28;;;31.40;55.40;;;;;;5000301;28;20188;-58
2023/06/20 12:36:19;;;;;;;4.00;3.30;;;31.30;59.80;;;;;;4999026;28;20057;-58
2023/06/20 12:38:44;;;;;;;5.07;3.70;;;31.40;55.70;;;;;;4997648;28;20037;-57
2023/06/20 12:41:11;;;;;;;4.35;3.13;;;31.40;59.10;;;;;;4993783;28;20096;-58